Mount Pleasant, IA (52641)

5:35 PM CDT on August 30, 2015 (GMT -0500)
Becks Hybrids Facility | | Change Station
CLOSE
Current Station
Personal Weather Station
Location: Mount Pleasant, IA
Elevation: 728 ft
Nearby Weather Stations

Elev 728 ft 40.97 °N, 91.53 °W | Updated 3 seconds ago

Clear
Clear
79.6 °F
Feels Like 83 °F
N
1.0
Wind Variable Wind from North
Gusts 5.0 mph

Today
High -- | Low -- °F
--% Chance of Precip.
Yesterday
High -- | Low -- °F
Precip. -- in
6:30 AM 7:42 PM
Full, 98% visible
Pressure 30.01 in
Visibility 10.0 miles
Clouds Clear
Heat Index 83 °F
Dew Point 71 °F
Humidity 74%
Rainfall 0.00 in
Snow Depth Not available.
UV 2 out of 12
Pollen 10.40 out of 12
Air Quality Not available.
Flu Activity Not available.
METAR KMPZ 302215Z AUTO 35003KT 10SM CLR 28/17 A3001 RMK AO2 T02770173
Pressure 30.01 in
Visibility 10.0 miles
Clouds Clear
Heat Index 83 °F
Dew Point 71 °F
Humidity 74%
Rainfall 0.00 in
Snow Depth Not available.
UV 2 out of 12
Pollen 10.40 out of 12
Air Quality Not available.
Flu Activity Not available.
METAR KMPZ 302215Z AUTO 35003KT 10SM CLR 28/17 A3001 RMK AO2 T02770173

10-Day Weather Forecast

×

Almanac

Astronomy

Aug. 30, 2015 Rise Set
Actual Time
Civil Twilight
Nautical Twilight
Astronomical Twilight
Moon
Length of Visible Light
Length of Day
Tomorrow will be .
, % of the Moon is Illuminated

Today's Extremes

State Highs State Lows

Community

WunderPhotos

Upload Photos

1,851,074 photos uploaded!

WunderBlogs® & News

Nearby

Air Quality

  Air Quality AQ Index Pollutant
Not available.

Snow Depth

Station Depth Elevation

Earthquake Activity

City Distance Mag. Time & Date
Minimum magnitude displayed is 2.5.

Coastal Water Temperatures

Place Temperature

Stations

Nearby Weather Stations

Station Location Temp. Windchill Dew Point Humidity Wind Precip. Elev Updated Type